Time;durP1;ratioP1;P1;durP2;ratioP2;P2;SDS_P1;SDS_P2;PMS_P1;PMS_P2;Temp;Humidity;BMP_temperature;BMP_pressure;BME280_temperature;BME280_humidity;BME280_pressure;Samples;Min_cycle;Max_cycle;Signal;HPM_P1;HPM_P2
2022/06/16 00:00:05;;;;;;;9.02;7.28;;;24.20;55.30;;;;;;5057603;28;20388;-66
2022/06/16 00:02:31;;;;;;;9.82;7.55;;;24.20;55.30;;;;;;5056667;28;20401;-66
2022/06/16 00:04:56;;;;;;;11.53;7.40;;;24.20;55.30;;;;;;5074598;28;20388;-67
2022/06/16 00:07:23;;;;;;;9.40;7.35;;;24.20;55.30;;;;;;5074872;28;20415;-66
2022/06/16 00:09:49;;;;;;;9.35;7.10;;;24.20;55.40;;;;;;5056671;28;20487;-67
2022/06/16 00:12:15;;;;;;;9.05;6.93;;;24.20;55.30;;;;;;5074778;28;20463;-66
2022/06/16 00:14:41;;;;;;;9.30;7.07;;;24.20;55.30;;;;;;5056485;28;20411;-66
2022/06/16 00:17:07;;;;;;;7.72;6.80;;;24.20;55.30;;;;;;5075221;28;20422;-66
2022/06/16 00:19:33;;;;;;;8.27;6.53;;;24.20;55.30;;;;;;5075485;28;20380;-66
2022/06/16 00:21:59;;;;;;;9.75;7.30;;;24.20;55.30;;;;;;5074536;28;20399;-67
2022/06/16 00:24:27;;;;;;;8.82;6.90;;;24.20;55.30;;;;;;5074987;28;20822;-66
2022/06/16 00:26:54;;;;;;;8.43;6.40;;;24.20;55.30;;;;;;5056696;28;20479;-67
2022/06/16 00:29:19;;;;;;;7.67;6.43;;;24.20;55.30;;;;;;5074514;28;20465;-67
2022/06/16 00:31:45;;;;;;;7.97;6.68;;;24.20;55.30;;;;;;5056062;28;20392;-66
2022/06/16 00:34:11;;;;;;;8.37;6.23;;;24.20;55.30;;;;;;5056615;28;20748;-67
2022/06/16 00:36:37;;;;;;;7.85;6.05;;;24.20;55.30;;;;;;5056405;28;20412;-66
2022/06/16 00:39:03;;;;;;;7.78;6.43;;;24.20;55.30;;;;;;5074316;28;20383;-66
2022/06/16 00:41:29;;;;;;;7.77;6.20;;;24.20;55.30;;;;;;5073989;28;20442;-67
2022/06/16 00:44:00;;;;;;;8.25;6.50;;;24.20;55.20;;;;;;5074158;28;20393;-67
2022/06/16 00:46:28;;;;;;;7.45;5.95;;;24.20;55.20;;;;;;5074546;28;20388;-67
2022/06/16 00:48:59;;;;;;;7.80;6.00;;;24.20;55.20;;;;;;5055927;28;20416;-66
2022/06/16 00:51:40;;;;;;;6.90;5.70;;;24.20;55.20;;;;;;5074146;28;20433;-66
2022/06/16 00:54:20;;;;;;;7.20;6.03;;;24.10;55.20;;;;;;5074059;28;20488;-67
2022/06/16 00:56:51;;;;;;;7.15;5.90;;;24.10;55.20;;;;;;5073388;28;20416;-66
2022/06/16 00:59:18;;;;;;;6.45;5.60;;;24.10;55.20;;;;;;5073716;28;20471;-67
2022/06/16 01:01:44;;;;;;;7.30;5.60;;;24.10;55.10;;;;;;5073255;28;20426;-66
2022/06/16 01:06:57;;;;;;;6.35;5.50;;;24.10;55.10;;;;;;5074108;28;20382;-67
2022/06/16 01:09:27;;;;;;;5.88;5.20;;;24.10;55.10;;;;;;5073925;28;20782;-67
2022/06/16 01:15:36;;;;;;;7.25;5.70;;;24.10;55.10;;;;;;5073654;28;20387;-67
2022/06/16 01:18:01;;;;;;;6.07;5.20;;;24.10;55.10;;;;;;5055704;28;20434;-67
2022/06/16 01:20:43;;;;;;;6.30;5.33;;;24.10;55.10;;;;;;5055685;28;20380;-66
2022/06/16 01:23:14;;;;;;;7.53;5.50;;;24.10;55.10;;;;;;5073283;28;20894;-67
2022/06/16 01:25:49;;;;;;;6.35;5.25;;;24.10;55.10;;;;;;5073302;28;20422;-67
2022/06/16 01:28:30;;;;;;;5.78;5.18;;;24.00;55.00;;;;;;5073185;28;20384;-66
2022/06/16 01:31:09;;;;;;;6.40;5.10;;;24.00;55.00;;;;;;5055038;28;20388;-65
2022/06/16 01:33:46;;;;;;;5.70;5.10;;;24.10;55.10;;;;;;5073613;28;20384;-67
2022/06/16 01:36:37;;;;;;;5.20;4.70;;;24.00;55.00;;;;;;5073295;28;20454;-67
2022/06/16 01:39:11;;;;;;;5.83;4.70;;;24.00;55.00;;;;;;5073204;28;20864;-67
2022/06/16 01:41:50;;;;;;;5.22;4.72;;;24.00;55.00;;;;;;5073191;28;20399;-67
2022/06/16 01:44:24;;;;;;;5.50;4.90;;;24.00;55.00;;;;;;5055523;28;20485;-66
2022/06/16 01:46:59;;;;;;;5.27;4.57;;;24.00;55.00;;;;;;5072591;28;20928;-67
2022/06/16 01:49:29;;;;;;;5.45;4.78;;;24.00;54.90;;;;;;5073104;28;20422;-67
2022/06/16 01:52:02;;;;;;;5.53;4.85;;;24.00;55.00;;;;;;5055124;28;20403;-67
2022/06/16 01:54:34;;;;;;;5.35;4.60;;;24.00;55.00;;;;;;5054915;28;20384;-67
2022/06/16 01:57:26;;;;;;;5.45;4.95;;;24.00;55.00;;;;;;5072987;28;20418;-67
2022/06/16 02:00:18;;;;;;;5.63;4.80;;;24.00;55.00;;;;;;5054440;28;20418;-67
2022/06/16 02:02:48;;;;;;;6.43;4.65;;;24.00;54.90;;;;;;5072320;28;20392;-66
2022/06/16 02:05:22;;;;;;;5.13;4.63;;;24.00;54.90;;;;;;5072699;28;20391;-66
2022/06/16 02:07:53;;;;;;;5.10;4.60;;;24.00;54.90;;;;;;5054614;28;20491;-66
2022/06/16 02:10:29;;;;;;;5.03;4.53;;;24.00;54.90;;;;;;5072983;28;20384;-67
2022/06/16 02:12:57;;;;;;;4.85;4.30;;;24.00;54.90;;;;;;5053829;28;20408;-67
2022/06/16 02:15:39;;;;;;;5.00;4.30;;;24.00;54.90;;;;;;5054289;28;20457;-66
2022/06/16 02:18:09;;;;;;;4.95;4.45;;;24.00;54.90;;;;;;5072219;28;20399;-68
2022/06/16 02:20:49;;;;;;;4.75;4.22;;;24.00;54.90;;;;;;5053973;28;20387;-65
2022/06/16 02:23:15;;;;;;;4.50;4.07;;;24.00;54.90;;;;;;5072276;28;20398;-67
2022/06/16 02:25:42;;;;;;;4.72;4.10;;;24.00;54.90;;;;;;5072338;28;20384;-66
2022/06/16 02:28:08;;;;;;;4.80;4.30;;;24.00;54.80;;;;;;5072539;28;20394;-66
2022/06/16 02:30:58;;;;;;;5.13;4.43;;;24.00;54.90;;;;;;5071294;28;20388;-65
2022/06/16 02:33:54;;;;;;;5.22;4.30;;;24.00;54.90;;;;;;5053860;28;20436;-67
2022/06/16 02:36:31;;;;;;;4.88;4.10;;;24.00;54.80;;;;;;5046172;28;20424;-67
2022/06/16 02:39:29;;;;;;;4.85;4.30;;;24.00;54.90;;;;;;5053713;28;20418;-67
2022/06/16 02:42:16;;;;;;;4.90;4.40;;;23.90;54.80;;;;;;5054248;28;20483;-67
2022/06/16 02:44:46;;;;;;;4.45;4.05;;;23.90;54.80;;;;;;5071377;28;20401;-66
2022/06/16 02:48:00;;;;;;;4.70;4.03;;;23.90;54.80;;;;;;5054575;28;20400;-67
2022/06/16 02:50:37;;;;;;;4.45;4.05;;;23.90;54.80;;;;;;5053763;28;20453;-66
2022/06/16 02:53:30;;;;;;;5.30;4.20;;;23.90;54.80;;;;;;5071696;28;20463;-67
2022/06/16 02:56:02;;;;;;;5.35;4.28;;;23.90;54.80;;;;;;5056267;28;20399;-67
2022/06/16 02:58:29;;;;;;;4.20;3.80;;;23.90;54.80;;;;;;5071803;28;20415;-67
2022/06/16 03:00:56;;;;;;;4.60;4.20;;;23.90;54.80;;;;;;5071402;28;20388;-66
2022/06/16 03:03:29;;;;;;;4.90;4.10;;;23.90;54.70;;;;;;5053693;28;20506;-66
2022/06/16 03:05:56;;;;;;;4.10;3.70;;;23.90;54.80;;;;;;5053725;28;20399;-67
2022/06/16 03:08:24;;;;;;;4.20;3.80;;;23.90;54.70;;;;;;5053589;28;20420;-67
2022/06/16 03:10:50;;;;;;;4.40;4.00;;;23.90;54.80;;;;;;5052452;28;20431;-67
2022/06/16 03:13:17;;;;;;;5.15;3.97;;;23.90;54.80;;;;;;5071270;28;20404;-67
2022/06/16 03:15:42;;;;;;;4.47;3.92;;;23.90;54.80;;;;;;5071108;28;20423;-67
2022/06/16 03:18:08;;;;;;;4.80;3.95;;;23.90;54.80;;;;;;5071426;28;20388;-67
2022/06/16 03:20:34;;;;;;;4.30;3.90;;;23.90;54.80;;;;;;5053442;28;20388;-67
2022/06/16 03:22:59;;;;;;;4.10;3.70;;;23.90;54.70;;;;;;5070723;28;20434;-67
2022/06/16 03:25:25;;;;;;;4.67;4.07;;;23.90;54.80;;;;;;5053525;28;20721;-67
2022/06/16 03:27:51;;;;;;;4.20;3.80;;;23.90;54.70;;;;;;5071200;28;20384;-67
2022/06/16 03:30:16;;;;;;;4.20;3.80;;;23.90;54.80;;;;;;5071139;28;20396;-67
2022/06/16 03:32:42;;;;;;;4.32;3.60;;;23.90;54.70;;;;;;5070716;28;20392;-67
2022/06/16 03:35:08;;;;;;;4.50;4.10;;;23.90;54.70;;;;;;5071325;28;20720;-67
2022/06/16 03:37:33;;;;;;;4.20;3.80;;;23.90;54.70;;;;;;5053338;28;20450;-67
2022/06/16 03:39:59;;;;;;;4.45;3.80;;;23.90;54.70;;;;;;5071412;28;20467;-67
2022/06/16 03:42:25;;;;;;;5.00;4.00;;;23.90;54.70;;;;;;5071158;28;20402;-66
2022/06/16 03:44:51;;;;;;;4.30;3.90;;;23.90;54.70;;;;;;5052589;28;20380;-66
2022/06/16 03:47:17;;;;;;;4.13;3.73;;;23.90;54.70;;;;;;5070943;28;20392;-66
2022/06/16 03:49:43;;;;;;;4.22;3.83;;;23.90;54.70;;;;;;5071031;28;20383;-66
2022/06/16 03:52:08;;;;;;;4.63;3.80;;;23.90;54.70;;;;;;5053121;28;20396;-67
2022/06/16 03:54:34;;;;;;;4.38;3.83;;;23.80;54.60;;;;;;5071131;28;20380;-67
2022/06/16 03:57:00;;;;;;;4.17;3.63;;;23.90;54.70;;;;;;5070529;28;20480;-66
2022/06/16 03:59:25;;;;;;;4.20;3.80;;;23.80;54.60;;;;;;5070899;28;20731;-67
2022/06/16 04:01:51;;;;;;;4.07;3.67;;;23.80;54.70;;;;;;5071222;28;20387;-67
2022/06/16 04:04:16;;;;;;;4.15;3.80;;;23.80;54.70;;;;;;5052767;28;20395;-66
2022/06/16 04:06:42;;;;;;;4.78;3.90;;;23.80;54.70;;;;;;5052600;28;20395;-66
2022/06/16 04:09:08;;;;;;;4.40;4.00;;;23.80;54.70;;;;;;5071058;28;20415;-67
2022/06/16 04:11:33;;;;;;;4.38;3.92;;;23.90;54.80;;;;;;5052933;28;20439;-66
2022/06/16 04:14:01;;;;;;;4.30;3.80;;;23.80;54.80;;;;;;5052790;28;20832;-67
2022/06/16 04:16:29;;;;;;;4.38;3.75;;;23.80;54.70;;;;;;5053113;28;20783;-67
2022/06/16 04:18:54;;;;;;;4.97;3.80;;;23.90;54.80;;;;;;5070671;28;20398;-67
2022/06/16 04:21:20;;;;;;;4.30;3.90;;;23.80;54.70;;;;;;5071813;28;20470;-67
2022/06/16 04:23:46;;;;;;;4.40;3.73;;;23.80;54.70;;;;;;5074489;28;20391;-66
2022/06/16 04:26:11;;;;;;;4.30;3.90;;;23.80;54.70;;;;;;5074446;28;20394;-67
2022/06/16 04:28:37;;;;;;;3.90;3.60;;;23.80;54.70;;;;;;5074476;28;20387;-67
2022/06/16 04:31:03;;;;;;;4.10;3.70;;;23.80;54.70;;;;;;5055952;28;20403;-65
2022/06/16 04:33:28;;;;;;;4.05;3.65;;;23.80;54.70;;;;;;5074389;28;20383;-67
2022/06/16 04:35:55;;;;;;;3.80;3.50;;;23.80;54.70;;;;;;5074142;28;20526;-67
2022/06/16 04:38:21;;;;;;;3.80;3.50;;;23.80;54.70;;;;;;5074309;28;20384;-66
2022/06/16 04:40:46;;;;;;;4.80;3.80;;;23.80;54.80;;;;;;5073847;28;20497;-66
2022/06/16 04:43:15;;;;;;;3.90;3.60;;;23.80;54.80;;;;;;5074468;28;20388;-67
2022/06/16 04:45:41;;;;;;;3.80;3.40;;;23.80;54.80;;;;;;5074082;28;20387;-66
2022/06/16 04:48:08;;;;;;;3.83;3.47;;;23.90;54.80;;;;;;5074626;28;21085;-67
2022/06/16 04:50:35;;;;;;;4.10;3.70;;;23.80;54.80;;;;;;5074082;28;20388;-67
2022/06/16 04:53:00;;;;;;;3.80;3.40;;;23.90;54.80;;;;;;5073848;28;20446;-66
2022/06/16 04:55:27;;;;;;;4.53;3.80;;;23.80;54.80;;;;;;5073997;28;20384;-67
2022/06/16 04:57:54;;;;;;;3.60;3.30;;;23.80;54.90;;;;;;5075227;28;20388;-67
2022/06/16 05:00:20;;;;;;;4.05;3.65;;;23.80;54.90;;;;;;5056152;28;20384;-67
2022/06/16 05:02:47;;;;;;;4.10;3.70;;;23.80;54.90;;;;;;5074025;28;20388;-67
2022/06/16 05:05:13;;;;;;;4.10;3.70;;;23.80;54.90;;;;;;5055873;28;20424;-66
2022/06/16 05:07:39;;;;;;;3.80;3.50;;;23.80;54.90;;;;;;5073828;28;20407;-66
2022/06/16 05:10:05;;;;;;;3.80;3.50;;;23.80;54.90;;;;;;5074663;28;20403;-67
2022/06/16 05:12:31;;;;;;;4.30;3.90;;;23.90;55.10;;;;;;5073676;28;20388;-67
2022/06/16 05:14:57;;;;;;;4.47;3.60;;;23.90;54.40;;;;;;5073871;28;20743;-67
2022/06/16 05:17:22;;;;;;;5.03;4.53;;;23.90;54.50;;;;;;5073637;28;20415;-67
2022/06/16 05:19:48;;;;;;;4.55;3.58;;;23.90;53.80;;;;;;5072520;28;20412;-66
2022/06/16 05:22:13;;;;;;;5.27;4.13;;;23.90;53.90;;;;;;5072924;28;20797;-66
2022/06/16 05:24:39;;;;;;;6.22;4.40;;;24.00;54.90;;;;;;5070108;28;20388;-62
2022/06/16 05:27:05;;;;;;;4.30;3.90;;;24.00;55.80;;;;;;5072581;28;21197;-67
2022/06/16 05:29:31;;;;;;;4.25;3.80;;;24.00;55.40;;;;;;5073127;28;20391;-67
2022/06/16 05:31:57;;;;;;;4.60;3.70;;;24.00;55.30;;;;;;5072432;28;20391;-67
2022/06/16 05:34:23;;;;;;;8.50;3.90;;;24.10;55.40;;;;;;5071607;28;20415;-67
2022/06/16 05:36:49;;;;;;;6.33;3.80;;;24.10;55.50;;;;;;5072385;28;20910;-67
2022/06/16 05:39:15;;;;;;;6.72;3.97;;;24.10;55.40;;;;;;5072881;28;20393;-67
2022/06/16 05:41:41;;;;;;;5.13;3.80;;;24.20;55.60;;;;;;5072751;28;20418;-66
2022/06/16 05:44:08;;;;;;;5.40;3.70;;;24.20;55.70;;;;;;5072504;28;20751;-67
2022/06/16 05:46:35;;;;;;;6.00;4.10;;;24.20;55.70;;;;;;5072439;28;20388;-67
2022/06/16 05:49:01;;;;;;;7.00;3.95;;;24.20;55.60;;;;;;5072043;28;20387;-67
2022/06/16 05:51:26;;;;;;;6.88;3.80;;;24.20;55.90;;;;;;5072594;28;20445;-67
2022/06/16 05:53:52;;;;;;;5.57;3.87;;;24.20;55.90;;;;;;5072085;28;20383;-65
2022/06/16 05:56:18;;;;;;;8.43;3.83;;;24.20;56.10;;;;;;5071645;28;20419;-67
2022/06/16 05:58:44;;;;;;;7.27;6.57;;;24.30;56.00;;;;;;5073586;28;20925;-66
2022/06/16 06:01:11;;;;;;;4.65;4.15;;;24.30;57.30;;;;;;5071807;28;20387;-65
2022/06/16 06:03:38;;;;;;;6.78;4.07;;;24.40;56.50;;;;;;5072490;28;20788;-66
2022/06/16 06:06:04;;;;;;;5.60;3.95;;;24.40;56.50;;;;;;5073221;28;20443;-66
2022/06/16 06:16:48;;;;;;;5.15;4.10;;;24.50;56.50;;;;;;5071459;28;20515;-67
2022/06/16 06:19:23;;;;;;;6.67;4.20;;;24.50;56.30;;;;;;5071937;28;20502;-65
2022/06/16 06:21:58;;;;;;;8.00;4.28;;;24.50;57.00;;;;;;5072187;28;20419;-67
2022/06/16 06:24:25;;;;;;;5.13;4.07;;;24.50;56.70;;;;;;5072204;28;20752;-65
2022/06/16 06:26:52;;;;;;;4.78;4.00;;;24.50;56.50;;;;;;5053537;28;20396;-66
2022/06/16 06:29:17;;;;;;;5.20;4.00;;;24.50;56.60;;;;;;5071950;28;20411;-67
2022/06/16 06:31:43;;;;;;;6.05;4.00;;;24.50;56.80;;;;;;5071986;28;20426;-66
2022/06/16 06:34:09;;;;;;;7.33;4.13;;;24.50;56.50;;;;;;5053988;28;20399;-67
2022/06/16 06:36:34;;;;;;;9.80;4.18;;;24.50;56.20;;;;;;5055188;28;20416;-67
2022/06/16 06:39:00;;;;;;;7.60;4.20;;;24.60;56.40;;;;;;5072958;28;20375;-67
2022/06/16 06:41:26;;;;;;;15.38;7.10;;;24.60;56.20;;;;;;5072643;28;20411;-67
2022/06/16 06:43:52;;;;;;;73.93;29.23;;;24.60;57.20;;;;;;5057123;28;20463;-67
2022/06/16 06:46:17;;;;;;;135.35;82.78;;;24.70;57.60;;;;;;5071460;28;20423;-67
2022/06/16 06:48:44;;;;;;;227.73;166.90;;;24.70;57.00;;;;;;5071511;28;20372;-68
2022/06/16 06:51:10;;;;;;;149.90;109.68;;;24.70;57.50;;;;;;5071183;28;20426;-68
2022/06/16 06:53:35;;;;;;;99.10;70.47;;;24.70;57.00;;;;;;5073010;28;20429;-68
2022/06/16 06:56:01;;;;;;;76.88;53.88;;;24.60;56.40;;;;;;5071827;28;20407;-68
2022/06/16 06:58:31;;;;;;;59.58;41.70;;;24.70;56.10;;;;;;5071199;28;20435;-69
2022/06/16 07:01:00;;;;;;;57.97;41.00;;;24.60;56.00;;;;;;5070408;28;20462;-68
2022/06/16 07:03:25;;;;;;;55.28;39.22;;;24.70;56.00;;;;;;5071686;28;20445;-68
2022/06/16 07:05:51;;;;;;;51.88;35.10;;;24.70;56.10;;;;;;5071105;28;20466;-68
2022/06/16 07:08:17;;;;;;;49.27;33.67;;;24.60;56.10;;;;;;5071247;28;20418;-68
2022/06/16 07:10:43;;;;;;;48.10;32.63;;;24.60;56.30;;;;;;5071103;28;20387;-67
2022/06/16 07:13:08;;;;;;;45.87;30.63;;;24.60;56.20;;;;;;5049306;28;20804;-68
2022/06/16 07:15:34;;;;;;;38.13;28.70;;;24.60;56.20;;;;;;5051149;28;20395;-68
2022/06/16 07:18:00;;;;;;;40.13;28.15;;;24.60;56.30;;;;;;5051128;28;20480;-69
2022/06/16 07:20:26;;;;;;;40.08;27.42;;;24.60;56.30;;;;;;5049785;28;20481;-68
2022/06/16 07:22:52;;;;;;;36.25;26.65;;;24.60;56.10;;;;;;5050689;28;20397;-67
2022/06/16 07:25:19;;;;;;;36.47;26.30;;;24.60;56.10;;;;;;5050978;28;20401;-68
2022/06/16 07:27:44;;;;;;;32.55;24.52;;;24.60;56.20;;;;;;5050332;28;20396;-70
2022/06/16 07:30:16;;;;;;;34.30;24.40;;;24.60;56.20;;;;;;5050616;28;20377;-68
2022/06/16 07:32:43;;;;;;;32.25;22.63;;;24.60;55.80;;;;;;5051142;28;20477;-68
2022/06/16 07:35:09;;;;;;;33.45;22.02;;;24.60;56.00;;;;;;5050674;28;20860;-68
2022/06/16 07:37:35;;;;;;;31.90;19.05;;;24.60;56.20;;;;;;5051004;28;20413;-68
2022/06/16 07:40:02;;;;;;;27.23;16.95;;;24.60;55.80;;;;;;5049573;28;20476;-67
2022/06/16 07:42:27;;;;;;;25.05;15.15;;;24.60;55.80;;;;;;5049855;28;20397;-68
2022/06/16 07:44:53;;;;;;;23.33;14.90;;;24.50;55.80;;;;;;5050568;28;20873;-67
2022/06/16 07:47:20;;;;;;;21.50;13.43;;;24.50;55.80;;;;;;5050907;28;20382;-68
2022/06/16 07:49:49;;;;;;;18.92;12.98;;;24.50;55.90;;;;;;5051000;28;20393;-67
2022/06/16 07:52:15;;;;;;;17.80;13.30;;;24.50;56.00;;;;;;5050965;28;20912;-67
2022/06/16 07:54:41;;;;;;;21.15;13.10;;;24.50;56.00;;;;;;5050637;28;20401;-67
2022/06/16 07:57:07;;;;;;;20.53;13.20;;;24.50;56.10;;;;;;5052712;28;20421;-66
2022/06/16 07:59:33;;;;;;;21.45;14.48;;;24.50;56.30;;;;;;5054942;28;20450;-67
2022/06/16 08:01:59;;;;;;;17.58;13.15;;;24.60;56.70;;;;;;5054484;28;20389;-66
2022/06/16 08:04:26;;;;;;;18.02;12.55;;;24.60;56.80;;;;;;5054420;28;20377;-66
2022/06/16 08:06:52;;;;;;;16.30;12.40;;;24.60;56.80;;;;;;5055023;28;21044;-68
2022/06/16 08:09:18;;;;;;;16.08;11.73;;;24.60;57.70;;;;;;5054373;28;20396;-67
2022/06/16 08:14:28;;;;;;;15.23;11.50;;;24.60;57.20;;;;;;5070472;28;20445;-68
2022/06/16 08:16:54;;;;;;;14.32;10.52;;;24.60;56.60;;;;;;5055603;28;20442;-65
2022/06/16 08:19:20;;;;;;;13.40;9.85;;;24.60;57.10;;;;;;5055881;28;20756;-69
2022/06/16 08:21:46;;;;;;;13.20;10.20;;;24.60;56.20;;;;;;5039840;28;20456;-68
2022/06/16 08:24:12;;;;;;;12.90;9.82;;;24.60;56.90;;;;;;5073949;28;20470;-69
2022/06/16 08:26:38;;;;;;;11.07;9.13;;;24.60;56.20;;;;;;5074219;28;20733;-67
2022/06/16 08:29:07;;;;;;;12.13;9.15;;;24.60;56.20;;;;;;5073758;28;20383;-68
2022/06/16 08:31:33;;;;;;;11.48;8.43;;;24.60;55.90;;;;;;5073852;28;20388;-68
2022/06/16 08:33:59;;;;;;;10.60;8.23;;;24.60;56.00;;;;;;5074057;28;20392;-68
2022/06/16 08:36:25;;;;;;;9.85;8.02;;;24.60;56.10;;;;;;5073967;28;20407;-63
2022/06/16 08:38:51;;;;;;;12.05;7.50;;;24.60;56.00;;;;;;5055874;28;20488;-68
2022/06/16 08:41:27;;;;;;;9.53;7.60;;;24.60;55.50;;;;;;5073661;28;20383;-68
2022/06/16 08:44:03;;;;;;;10.52;7.53;;;24.60;55.70;;;;;;5073967;28;20442;-68
2022/06/16 08:46:35;;;;;;;9.90;7.20;;;24.60;55.90;;;;;;5073970;28;20376;-68
2022/06/16 08:49:22;;;;;;;9.20;7.45;;;24.60;55.70;;;;;;5073402;28;20486;-67
2022/06/16 08:52:28;;;;;;;8.38;6.80;;;24.60;55.70;;;;;;5073825;28;20426;-68
2022/06/16 08:55:21;;;;;;;8.70;7.22;;;24.60;55.70;;;;;;5072593;28;20479;-68
2022/06/16 08:57:55;;;;;;;8.75;6.55;;;24.60;55.60;;;;;;5073719;28;20418;-68
2022/06/16 09:00:32;;;;;;;8.30;6.55;;;24.60;55.70;;;;;;5073884;28;20383;-68
2022/06/16 09:03:09;;;;;;;7.45;6.60;;;24.60;55.60;;;;;;5073275;28;20476;-67
2022/06/16 09:06:06;;;;;;;7.95;6.68;;;24.60;55.70;;;;;;5073254;28;20441;-62
2022/06/16 09:08:35;;;;;;;7.03;6.20;;;24.60;55.80;;;;;;5072352;28;20436;-63
2022/06/16 09:11:10;;;;;;;7.35;6.57;;;24.60;55.70;;;;;;5072973;28;20364;-67
2022/06/16 09:13:50;;;;;;;7.65;6.53;;;24.60;55.70;;;;;;5073490;28;20408;-63
2022/06/16 09:16:28;;;;;;;8.10;6.28;;;24.50;55.60;;;;;;5073440;28;20499;-67
2022/06/16 09:19:20;;;;;;;7.22;5.93;;;24.60;55.60;;;;;;5073724;28;20406;-68
2022/06/16 09:22:15;;;;;;;7.50;5.95;;;24.60;55.60;;;;;;5055528;28;20392;-68
2022/06/16 09:24:52;;;;;;;7.32;6.13;;;24.50;55.60;;;;;;5049946;28;20380;-69
2022/06/16 09:27:25;;;;;;;6.57;5.85;;;24.50;55.60;;;;;;5055178;28;20441;-70
2022/06/16 09:29:54;;;;;;;9.73;5.93;;;24.60;56.00;;;;;;5073643;28;20503;-68
2022/06/16 09:32:43;;;;;;;10.73;5.97;;;24.60;55.70;;;;;;5055892;28;20463;-68
2022/06/16 09:35:23;;;;;;;13.55;6.15;;;24.60;56.10;;;;;;5072952;28;20395;-68
2022/06/16 09:37:59;;;;;;;9.65;5.57;;;24.50;55.70;;;;;;5073926;28;20424;-67
2022/06/16 09:40:50;;;;;;;8.07;5.80;;;24.60;55.90;;;;;;5055739;28;20402;-68
2022/06/16 09:43:28;;;;;;;8.40;5.53;;;24.60;56.00;;;;;;5074493;28;20441;-67
2022/06/16 09:46:11;;;;;;;8.35;5.63;;;24.60;56.00;;;;;;5073592;28;20387;-67
2022/06/16 09:48:41;;;;;;;8.50;5.68;;;24.50;56.10;;;;;;5072950;28;20398;-64
2022/06/16 09:51:28;;;;;;;9.33;5.93;;;24.50;56.40;;;;;;5072713;28;20525;-68
2022/06/16 09:54:09;;;;;;;9.57;5.97;;;24.60;56.70;;;;;;5072866;28;20481;-68
2022/06/16 09:57:05;;;;;;;11.52;8.07;;;24.60;58.20;;;;;;5054913;28;20424;-67
2022/06/16 10:00:05;;;;;;;8.60;6.47;;;24.60;59.20;;;;;;5072067;28;20398;-68
2022/06/16 10:02:46;;;;;;;8.25;6.50;;;24.70;59.20;;;;;;5072708;28;20883;-68
2022/06/16 10:05:40;;;;;;;8.97;5.90;;;24.70;59.00;;;;;;5054356;28;20452;-68
2022/06/16 10:08:21;;;;;;;9.63;5.85;;;24.70;58.40;;;;;;5050999;28;20434;-68
2022/06/16 10:10:54;;;;;;;9.20;5.85;;;24.70;57.60;;;;;;5072615;28;20384;-68
2022/06/16 10:13:55;;;;;;;8.57;5.55;;;24.70;57.90;;;;;;5053998;28;20400;-68
2022/06/16 10:16:34;;;;;;;7.22;5.75;;;24.70;57.70;;;;;;5022610;28;20922;-69
2022/06/16 10:19:00;;;;;;;7.05;5.43;;;24.70;57.50;;;;;;5054075;28;20487;-69
2022/06/16 10:21:25;;;;;;;7.07;5.35;;;24.70;57.20;;;;;;5071927;28;20454;-68
2022/06/16 10:23:57;;;;;;;7.13;5.67;;;24.70;57.60;;;;;;5072362;28;20800;-69
2022/06/16 10:26:22;;;;;;;6.43;5.38;;;24.70;57.20;;;;;;5072391;28;20395;-69
2022/06/16 10:29:22;;;;;;;7.28;5.50;;;24.70;57.60;;;;;;5071596;28;20395;-69
2022/06/16 10:31:49;;;;;;;7.68;5.22;;;24.70;57.50;;;;;;5072076;28;20396;-69
2022/06/16 10:34:36;;;;;;;6.65;4.95;;;24.70;57.30;;;;;;5054580;28;20782;-68
2022/06/16 10:37:19;;;;;;;6.38;5.22;;;24.70;57.20;;;;;;5071940;28;20415;-64
2022/06/16 10:39:54;;;;;;;6.60;5.13;;;24.70;57.30;;;;;;5071821;28;20402;-68
2022/06/16 10:42:43;;;;;;;5.95;5.30;;;24.70;57.10;;;;;;5053925;28;20426;-68
2022/06/16 10:45:14;;;;;;;8.02;5.20;;;24.70;57.20;;;;;;5071563;28;20379;-68
2022/06/16 10:47:47;;;;;;;10.15;5.07;;;24.70;57.10;;;;;;5071599;28;20871;-69
2022/06/16 10:50:38;;;;;;;8.52;5.25;;;24.70;56.90;;;;;;5072831;28;20403;-68
2022/06/16 10:53:14;;;;;;;9.40;5.20;;;24.70;58.10;;;;;;5054044;28;20384;-68
2022/06/16 10:55:46;;;;;;;11.13;5.20;;;24.80;57.80;;;;;;5071776;28;20388;-68
2022/06/16 10:58:25;;;;;;;8.90;4.97;;;24.80;57.90;;;;;;5071198;28;20411;-68
2022/06/16 11:01:16;;;;;;;8.63;5.35;;;24.80;57.80;;;;;;5070322;28;20398;-69
2022/06/16 11:04:01;;;;;;;7.80;5.10;;;24.90;57.90;;;;;;5070419;28;20743;-69
2022/06/16 11:06:28;;;;;;;8.25;4.90;;;24.80;57.50;;;;;;5071675;28;20871;-69
2022/06/16 11:09:01;;;;;;;10.23;5.03;;;24.90;57.90;;;;;;5072954;28;20383;-67
2022/06/16 11:11:42;;;;;;;13.83;5.07;;;24.80;57.60;;;;;;5070357;28;20396;-68
2022/06/16 11:14:18;;;;;;;9.88;4.85;;;24.80;58.10;;;;;;5071712;28;20399;-67
2022/06/16 11:16:51;;;;;;;10.18;4.90;;;24.80;57.20;;;;;;5071759;28;20412;-67
2022/06/16 11:19:29;;;;;;;8.18;4.90;;;24.80;57.10;;;;;;5070050;28;20383;-66
2022/06/16 11:21:56;;;;;;;7.40;4.60;;;24.80;56.80;;;;;;5070970;28;20396;-67
2022/06/16 11:24:33;;;;;;;6.07;4.55;;;24.80;56.70;;;;;;5070684;28;20391;-67
2022/06/16 11:27:10;;;;;;;6.18;4.55;;;24.90;56.80;;;;;;5071683;28;20902;-67
2022/06/16 11:29:37;;;;;;;6.43;4.50;;;24.90;56.70;;;;;;5070609;28;20874;-65
2022/06/16 11:32:19;;;;;;;6.68;4.60;;;24.80;56.70;;;;;;5070118;28;20392;-68
2022/06/16 11:34:46;;;;;;;6.00;4.60;;;24.80;56.50;;;;;;5070658;28;20380;-68
2022/06/16 11:37:38;;;;;;;6.13;4.55;;;24.90;56.70;;;;;;5070839;28;20407;-67
2022/06/16 11:40:22;;;;;;;5.50;4.68;;;24.90;56.40;;;;;;5071988;28;20927;-67
2022/06/16 11:43:13;;;;;;;8.90;4.90;;;24.90;57.00;;;;;;5071587;28;20894;-67
2022/06/16 11:46:11;;;;;;;5.68;4.38;;;24.80;56.30;;;;;;5071227;28;20391;-67
2022/06/16 11:48:48;;;;;;;7.53;4.40;;;24.90;56.40;;;;;;5071710;28;20422;-66
2022/06/16 11:51:47;;;;;;;6.47;4.63;;;24.90;56.50;;;;;;5070466;28;20463;-67
2022/06/16 11:54:41;;;;;;;6.50;4.90;;;24.90;56.40;;;;;;5071625;28;20395;-67
2022/06/16 11:57:12;;;;;;;6.90;4.57;;;24.80;56.40;;;;;;5071023;28;20502;-64
2022/06/16 12:00:05;;;;;;;6.60;4.50;;;24.80;56.30;;;;;;5071600;28;20456;-66
2022/06/16 12:02:49;;;;;;;8.75;4.72;;;24.80;56.50;;;;;;5053368;28;20440;-67
2022/06/16 12:05:44;;;;;;;8.30;4.80;;;24.90;57.00;;;;;;5069940;28;20928;-64
2022/06/16 12:08:16;;;;;;;6.30;4.60;;;24.90;57.20;;;;;;5051998;28;20741;-67
2022/06/16 12:10:49;;;;;;;10.23;4.90;;;24.90;56.70;;;;;;5050774;28;20404;-68
2022/06/16 12:13:20;;;;;;;7.45;4.80;;;25.00;57.40;;;;;;5069180;28;20427;-67
2022/06/16 12:16:05;;;;;;;6.47;4.97;;;24.90;57.10;;;;;;5069622;28;20384;-67
2022/06/16 12:18:30;;;;;;;8.83;4.90;;;24.90;57.20;;;;;;5051197;28;20428;-67
2022/06/16 12:21:22;;;;;;;7.93;4.90;;;25.00;57.60;;;;;;5033002;28;20421;-65
2022/06/16 12:24:05;;;;;;;9.55;5.63;;;25.00;57.30;;;;;;5032970;28;20398;-68
2022/06/16 12:26:45;;;;;;;14.55;5.45;;;25.00;57.50;;;;;;5052320;28;20424;-66
2022/06/16 12:29:19;;;;;;;10.38;5.43;;;24.90;58.10;;;;;;5051847;28;20778;-63
2022/06/16 12:32:11;;;;;;;14.73;6.00;;;24.90;58.60;;;;;;5050967;28;20389;-63
2022/06/16 12:34:57;;;;;;;11.27;5.80;;;24.90;59.00;;;;;;5039290;28;20421;-63
2022/06/16 12:37:29;;;;;;;13.48;6.00;;;24.90;59.30;;;;;;5050104;28;20467;-65
2022/06/16 12:40:18;;;;;;;10.02;5.90;;;24.90;59.80;;;;;;5051125;28;20385;-64
2022/06/16 12:42:50;;;;;;;9.70;5.75;;;24.90;60.00;;;;;;5052686;28;20404;-68
2022/06/16 12:45:46;;;;;;;9.55;6.10;;;24.90;60.80;;;;;;5053942;28;20392;-68
2022/06/16 12:48:21;;;;;;;9.40;5.82;;;24.90;60.50;;;;;;5054354;28;20389;-65
2022/06/16 12:50:53;;;;;;;10.77;5.90;;;24.90;60.60;;;;;;5036212;28;20389;-66
2022/06/16 12:53:31;;;;;;;10.23;5.90;;;24.90;60.70;;;;;;5053713;28;20492;-63
2022/06/16 12:56:04;;;;;;;9.82;5.78;;;24.90;61.00;;;;;;5036148;28;20873;-62
2022/06/16 12:58:34;;;;;;;10.23;5.70;;;24.90;60.80;;;;;;5054070;28;20401;-64
2022/06/16 13:01:06;;;;;;;8.95;5.80;;;25.00;61.20;;;;;;5054295;28;20385;-68
2022/06/16 13:03:41;;;;;;;8.68;5.55;;;25.00;61.20;;;;;;5035787;28;20408;-67
2022/06/16 13:06:08;;;;;;;10.32;5.85;;;25.00;61.30;;;;;;5053970;28;20428;-66
2022/06/16 13:08:38;;;;;;;10.43;5.72;;;25.00;61.10;;;;;;5053856;28;20390;-67
2022/06/16 13:11:12;;;;;;;11.68;5.85;;;25.00;61.30;;;;;;5054083;28;20389;-63
2022/06/16 13:13:53;;;;;;;11.30;5.75;;;25.00;61.70;;;;;;5054401;28;20414;-63
2022/06/16 13:16:23;;;;;;;16.20;5.82;;;25.10;62.60;;;;;;5053537;28;20405;-63
2022/06/16 13:19:13;;;;;;;11.18;5.63;;;25.10;62.80;;;;;;5053777;28;20897;-63
2022/06/16 13:21:55;;;;;;;21.25;6.10;;;25.10;62.60;;;;;;5053308;28;20378;-64
2022/06/16 13:24:50;;;;;;;14.47;6.57;;;25.20;63.30;;;;;;5035460;28;20481;-66
2022/06/16 13:27:53;;;;;;;24.88;11.13;;;25.20;64.10;;;;;;5046255;28;20389;-65